Time;durP1;ratioP1;P1;durP2;ratioP2;P2;SDS_P1;SDS_P2;PMS_P1;PMS_P2;Temp;Humidity;BMP_temperature;BMP_pressure;BME280_temperature;BME280_humidity;BME280_pressure;Samples;Min_cycle;Max_cycle;Signal;HPM_P1;HPM_P2
2023/12/26 00:01:02;;;;;;;3.20;1.00;;;9.30;99.90;;;;;;4952690;29;20040;-86
2023/12/26 00:03:29;;;;;;;2.50;0.90;;;9.30;99.90;;;;;;4945935;29;20040;-85
2023/12/26 00:05:56;;;;;;;3.63;1.00;;;9.20;99.90;;;;;;4945685;29;20044;-86
2023/12/26 00:08:22;;;;;;;2.50;0.90;;;9.30;99.90;;;;;;4952784;29;20127;-86
2023/12/26 00:10:49;;;;;;;2.42;0.90;;;9.30;99.90;;;;;;4952306;29;20046;-86
2023/12/26 00:13:16;;;;;;;3.08;0.90;;;9.30;99.90;;;;;;4952184;29;20039;-85
2023/12/26 00:15:42;;;;;;;1.80;0.80;;;9.20;99.90;;;;;;4951362;29;20052;-86
2023/12/26 00:18:10;;;;;;;2.28;0.80;;;9.30;99.90;;;;;;4948287;29;20044;-85
2023/12/26 00:20:40;;;;;;;2.30;0.70;;;9.30;99.90;;;;;;4960348;29;20056;-85
2023/12/26 00:23:06;;;;;;;2.83;1.00;;;9.30;99.90;;;;;;4952212;29;20094;-86
2023/12/26 00:25:33;;;;;;;2.10;0.90;;;9.30;99.90;;;;;;4956210;29;20564;-86
2023/12/26 00:28:00;;;;;;;3.88;0.85;;;9.20;99.90;;;;;;4971765;29;20036;-85
2023/12/26 00:30:27;;;;;;;2.28;0.90;;;9.30;99.90;;;;;;4956170;29;20107;-85
2023/12/26 00:32:53;;;;;;;2.97;0.73;;;9.30;99.90;;;;;;4956141;29;20074;-85
2023/12/26 00:35:20;;;;;;;1.75;0.80;;;9.30;99.90;;;;;;4955991;29;20035;-85
2023/12/26 00:37:47;;;;;;;4.38;0.90;;;9.30;99.90;;;;;;4956101;29;20048;-85
2023/12/26 00:40:13;;;;;;;2.75;0.90;;;9.30;99.90;;;;;;4942642;29;20044;-86
2023/12/26 00:42:40;;;;;;;2.42;0.80;;;9.30;99.90;;;;;;4969831;29;20122;-86
2023/12/26 00:45:08;;;;;;;3.15;0.90;;;9.30;99.90;;;;;;4943338;29;20044;-86
2023/12/26 00:47:35;;;;;;;1.42;0.80;;;9.30;99.90;;;;;;4952435;29;20044;-86
2023/12/26 00:50:02;;;;;;;2.20;0.93;;;9.30;99.90;;;;;;4953871;29;20050;-85
2023/12/26 00:52:31;;;;;;;2.20;0.85;;;9.30;99.90;;;;;;4949259;29;20088;-85
2023/12/26 00:54:58;;;;;;;4.15;0.95;;;9.30;99.90;;;;;;4943031;29;20063;-85
2023/12/26 00:57:25;;;;;;;1.58;0.85;;;9.30;99.90;;;;;;4947595;29;20040;-85
2023/12/26 00:59:52;;;;;;;1.77;0.85;;;9.40;99.90;;;;;;4960892;29;20054;-86
2023/12/26 01:02:21;;;;;;;2.58;1.00;;;9.30;99.90;;;;;;4946579;29;20130;-86
2023/12/26 01:04:48;;;;;;;1.75;0.88;;;9.30;99.90;;;;;;4962641;29;20067;-85
2023/12/26 01:07:14;;;;;;;3.22;0.88;;;9.40;99.90;;;;;;4945658;29;20039;-86
2023/12/26 01:09:41;;;;;;;3.08;0.75;;;9.40;99.90;;;;;;4940988;29;20067;-86
2023/12/26 01:12:08;;;;;;;2.72;1.08;;;9.40;99.90;;;;;;4944166;29;20122;-86
2023/12/26 01:14:35;;;;;;;2.15;0.80;;;9.40;99.90;;;;;;4964227;29;20055;-86
2023/12/26 01:17:02;;;;;;;1.35;0.75;;;9.40;99.90;;;;;;4956607;29;20052;-86
2023/12/26 01:19:28;;;;;;;2.20;0.98;;;9.40;99.90;;;;;;4941149;29;20035;-86
2023/12/26 01:21:55;;;;;;;2.22;0.90;;;9.40;99.90;;;;;;4938687;29;20056;-86
2023/12/26 01:24:22;;;;;;;2.75;0.90;;;9.40;99.90;;;;;;4941541;29;20379;-85
2023/12/26 01:26:48;;;;;;;3.47;1.10;;;9.40;99.90;;;;;;4959398;29;22481;-86
2023/12/26 01:29:15;;;;;;;2.10;0.90;;;9.50;99.90;;;;;;4953353;29;20410;-85
2023/12/26 01:31:42;;;;;;;4.90;1.00;;;9.50;99.90;;;;;;4954150;29;20418;-85
2023/12/26 01:34:09;;;;;;;5.57;0.90;;;9.40;99.90;;;;;;4950659;29;20512;-86
2023/12/26 01:36:35;;;;;;;2.10;0.95;;;9.50;99.90;;;;;;4941183;29;20485;-85
2023/12/26 01:39:02;;;;;;;2.03;0.98;;;9.40;99.90;;;;;;4945998;29;20048;-85
2023/12/26 01:41:30;;;;;;;3.78;0.80;;;9.40;99.90;;;;;;4955060;29;20390;-85
2023/12/26 01:43:57;;;;;;;3.50;0.90;;;9.50;99.90;;;;;;4954794;29;20412;-85
2023/12/26 01:46:23;;;;;;;3.25;0.93;;;9.50;99.90;;;;;;4958297;29;20043;-85
2023/12/26 01:48:52;;;;;;;3.75;0.80;;;9.40;99.90;;;;;;4954742;29;20039;-85
2023/12/26 01:51:21;;;;;;;4.80;1.10;;;9.50;99.90;;;;;;4954589;29;20043;-85
2023/12/26 01:53:49;;;;;;;2.33;0.80;;;9.50;99.90;;;;;;4943445;29;20047;-86
2023/12/26 01:56:16;;;;;;;5.40;0.80;;;9.50;99.90;;;;;;4950820;29;20044;-86
2023/12/26 01:58:45;;;;;;;2.72;1.00;;;9.40;99.90;;;;;;4948967;29;20039;-86
2023/12/26 02:01:12;;;;;;;3.60;0.82;;;9.50;99.90;;;;;;4957961;29;20114;-85
2023/12/26 02:03:40;;;;;;;4.78;0.77;;;9.40;99.90;;;;;;4951428;29;20092;-85
2023/12/26 02:06:08;;;;;;;3.58;1.00;;;9.50;99.90;;;;;;4968062;29;20055;-86
2023/12/26 02:08:37;;;;;;;3.55;0.80;;;9.50;99.90;;;;;;4954219;29;20095;-86
2023/12/26 02:11:04;;;;;;;5.75;1.00;;;9.40;99.90;;;;;;4970234;29;20039;-86
2023/12/26 02:13:30;;;;;;;6.95;1.20;;;9.50;99.90;;;;;;4954367;29;20047;-86
2023/12/26 02:16:00;;;;;;;6.10;0.85;;;9.50;99.90;;;;;;4941874;29;20043;-86
2023/12/26 02:18:28;;;;;;;7.90;1.10;;;9.50;99.90;;;;;;4947819;29;20131;-87
2023/12/26 02:20:55;;;;;;;6.18;1.10;;;9.50;99.90;;;;;;4963816;29;20069;-86
2023/12/26 02:23:25;;;;;;;10.38;1.40;;;9.50;99.90;;;;;;4954113;29;20043;-86
2023/12/26 02:25:54;;;;;;;8.82;1.38;;;9.50;99.90;;;;;;4952468;29;20040;-86
2023/12/26 02:28:21;;;;;;;10.35;1.70;;;9.50;99.90;;;;;;4935197;29;20050;-86
2023/12/26 02:30:49;;;;;;;8.25;1.40;;;9.40;99.90;;;;;;4965109;29;20541;-86
2023/12/26 02:33:16;;;;;;;9.98;1.40;;;9.40;99.90;;;;;;4944746;29;20040;-86
2023/12/26 02:35:43;;;;;;;9.75;1.55;;;9.40;99.90;;;;;;4947378;29;20442;-86
2023/12/26 02:38:10;;;;;;;8.80;1.42;;;9.40;99.90;;;;;;4967363;29;20044;-86
2023/12/26 02:40:37;;;;;;;11.98;1.40;;;9.40;99.90;;;;;;4949929;29;20044;-86
2023/12/26 02:43:04;;;;;;;7.57;1.33;;;9.40;99.90;;;;;;4950524;29;20040;-86
2023/12/26 02:45:31;;;;;;;12.88;1.60;;;9.40;99.90;;;;;;4947319;29;20413;-86
2023/12/26 02:47:57;;;;;;;11.20;1.55;;;9.40;99.90;;;;;;4945234;29;20043;-85
2023/12/26 02:50:24;;;;;;;13.20;2.10;;;9.40;99.90;;;;;;4953926;29;20043;-86
2023/12/26 02:52:51;;;;;;;12.43;1.65;;;9.40;99.90;;;;;;4953621;29;20046;-85
2023/12/26 02:55:18;;;;;;;10.02;1.55;;;9.40;99.90;;;;;;4953842;29;20485;-86
2023/12/26 02:57:45;;;;;;;9.63;1.80;;;9.40;99.90;;;;;;4953846;29;20044;-86
2023/12/26 03:00:12;;;;;;;12.10;1.80;;;9.40;99.90;;;;;;4953461;29;20043;-86
2023/12/26 03:02:39;;;;;;;11.48;1.90;;;9.30;99.90;;;;;;4953466;29;20489;-86
2023/12/26 03:05:06;;;;;;;12.15;1.42;;;9.40;99.90;;;;;;4946559;29;20051;-86
2023/12/26 03:07:33;;;;;;;12.63;2.10;;;9.40;99.90;;;;;;4937446;29;20481;-86
2023/12/26 03:10:04;;;;;;;17.73;2.13;;;9.40;99.90;;;;;;4929820;29;20051;-86
2023/12/26 03:12:31;;;;;;;9.82;1.67;;;9.30;99.90;;;;;;4934641;29;20131;-86
2023/12/26 03:14:58;;;;;;;10.20;1.80;;;9.30;99.90;;;;;;4927883;29;20075;-86
2023/12/26 03:17:25;;;;;;;16.30;2.35;;;9.30;99.90;;;;;;4926810;29;20130;-87
2023/12/26 03:19:52;;;;;;;15.13;2.22;;;9.20;99.90;;;;;;4949969;29;20058;-87
2023/12/26 03:22:20;;;;;;;11.90;1.58;;;9.20;99.90;;;;;;4926230;29;20044;-86
2023/12/26 03:24:47;;;;;;;15.50;2.15;;;9.20;99.90;;;;;;4946806;29;20087;-86
2023/12/26 03:27:17;;;;;;;10.90;1.60;;;9.10;99.90;;;;;;4930724;29;20035;-86
2023/12/26 03:29:43;;;;;;;11.20;1.67;;;9.10;99.90;;;;;;4922059;29;20466;-85
2023/12/26 03:32:10;;;;;;;11.90;1.65;;;9.00;99.90;;;;;;4931814;29;20040;-86
2023/12/26 03:34:37;;;;;;;8.95;1.88;;;9.00;99.90;;;;;;4945058;29;20134;-86
2023/12/26 03:37:04;;;;;;;7.72;1.50;;;9.00;99.90;;;;;;4939537;29;20040;-86
2023/12/26 03:39:32;;;;;;;9.07;1.77;;;8.90;99.90;;;;;;4955976;29;20076;-86
2023/12/26 03:41:59;;;;;;;6.82;1.25;;;9.00;99.90;;;;;;4943932;29;20114;-87
2023/12/26 03:44:25;;;;;;;12.70;1.63;;;8.90;99.90;;;;;;4918526;29;20044;-86
2023/12/26 03:46:52;;;;;;;9.82;1.40;;;8.90;99.90;;;;;;4937033;29;20393;-86
2023/12/26 03:49:19;;;;;;;9.18;1.60;;;8.90;99.90;;;;;;4927460;29;20130;-86
2023/12/26 03:51:47;;;;;;;8.02;1.42;;;8.90;99.90;;;;;;4946959;29;20046;-86
2023/12/26 03:54:15;;;;;;;13.93;2.03;;;8.90;99.90;;;;;;4938779;29;20028;-87
2023/12/26 03:56:41;;;;;;;13.50;2.95;;;8.80;99.90;;;;;;4939798;29;20116;-86
2023/12/26 03:59:08;;;;;;;12.13;1.92;;;8.80;99.90;;;;;;4940313;29;20513;-86
2023/12/26 04:01:35;;;;;;;12.50;1.42;;;8.80;99.90;;;;;;4944233;29;20036;-86
2023/12/26 04:04:02;;;;;;;12.73;1.73;;;8.80;99.90;;;;;;4922026;29;20044;-86
2023/12/26 04:06:29;;;;;;;11.52;1.95;;;8.70;99.90;;;;;;4941316;29;20465;-86
2023/12/26 04:08:56;;;;;;;13.63;2.08;;;8.80;99.90;;;;;;4949480;29;20084;-86
2023/12/26 04:11:23;;;;;;;8.63;1.50;;;8.80;99.90;;;;;;4944235;29;20524;-86
2023/12/26 04:13:49;;;;;;;14.80;2.38;;;8.80;99.90;;;;;;4956356;29;20492;-85
2023/12/26 04:16:16;;;;;;;7.10;1.52;;;8.80;99.90;;;;;;4952036;29;20121;-86
2023/12/26 04:18:43;;;;;;;6.82;1.40;;;8.70;99.90;;;;;;4963855;29;20040;-86
2023/12/26 04:21:09;;;;;;;14.13;2.08;;;8.70;99.90;;;;;;4953407;29;20560;-86
2023/12/26 04:23:36;;;;;;;12.63;1.73;;;8.60;99.90;;;;;;4956115;29;20063;-86
2023/12/26 04:26:03;;;;;;;9.73;1.63;;;8.60;99.90;;;;;;4953660;29;20134;-86
2023/12/26 04:28:30;;;;;;;17.02;2.50;;;8.50;99.90;;;;;;4950193;29;20032;-86
2023/12/26 04:30:56;;;;;;;10.57;2.10;;;8.50;99.90;;;;;;4947310;29;20176;-86
2023/12/26 04:33:25;;;;;;;11.25;1.90;;;8.40;99.90;;;;;;4943847;29;20129;-86
2023/12/26 04:35:51;;;;;;;12.13;1.83;;;8.40;99.90;;;;;;4956906;29;20394;-86
2023/12/26 04:38:18;;;;;;;13.20;1.83;;;8.30;99.90;;;;;;4941381;29;20044;-86
2023/12/26 04:40:45;;;;;;;11.73;1.90;;;8.20;99.90;;;;;;4937458;29;20044;-86
2023/12/26 04:43:11;;;;;;;16.08;1.90;;;8.20;99.90;;;;;;4949381;29;20040;-86
2023/12/26 04:45:38;;;;;;;16.02;1.98;;;8.10;99.90;;;;;;4956196;29;20050;-86
2023/12/26 04:48:07;;;;;;;14.85;2.05;;;8.10;99.90;;;;;;4953004;29;20104;-86
2023/12/26 04:50:34;;;;;;;23.08;2.10;;;8.00;99.90;;;;;;4971769;29;20047;-86
2023/12/26 04:53:04;;;;;;;15.05;1.98;;;8.00;99.90;;;;;;4943565;29;20045;-86
2023/12/26 04:55:32;;;;;;;16.85;2.42;;;8.00;99.90;;;;;;4956383;29;20040;-86
2023/12/26 04:57:59;;;;;;;12.25;1.80;;;8.00;99.90;;;;;;4943590;29;20094;-86
2023/12/26 05:00:25;;;;;;;10.43;1.80;;;7.90;99.90;;;;;;4955842;29;20047;-87
2023/12/26 05:02:52;;;;;;;11.18;2.13;;;7.90;99.90;;;;;;4950012;29;20059;-87
2023/12/26 05:05:19;;;;;;;13.57;1.80;;;7.90;99.90;;;;;;4948809;29;20490;-87
2023/12/26 05:07:45;;;;;;;10.95;2.42;;;7.90;99.90;;;;;;4943050;29;20059;-87
2023/12/26 05:10:12;;;;;;;15.15;2.60;;;7.90;99.90;;;;;;4936017;29;20040;-87
2023/12/26 05:12:39;;;;;;;18.92;2.25;;;7.90;99.90;;;;;;4934057;29;20179;-87
2023/12/26 05:15:06;;;;;;;9.35;1.85;;;7.90;99.90;;;;;;4920895;29;20044;-86
2023/12/26 05:17:33;;;;;;;15.43;2.20;;;7.90;99.90;;;;;;4939767;29;20126;-86
2023/12/26 05:20:01;;;;;;;14.40;2.28;;;7.90;99.90;;;;;;4936932;29;20050;-86
2023/12/26 05:22:27;;;;;;;11.90;2.08;;;7.90;99.90;;;;;;4930166;29;20099;-87
2023/12/26 05:24:54;;;;;;;9.32;1.67;;;7.90;99.90;;;;;;4927541;29;20683;-87
2023/12/26 05:27:21;;;;;;;18.58;2.08;;;7.90;99.90;;;;;;4939659;29;20036;-87
2023/12/26 05:29:48;;;;;;;12.60;2.15;;;7.90;99.90;;;;;;4940830;29;20047;-87
2023/12/26 05:32:14;;;;;;;8.90;1.88;;;7.90;99.90;;;;;;4939632;29;20489;-87
2023/12/26 05:34:44;;;;;;;17.50;2.30;;;7.90;99.90;;;;;;4939480;29;20197;-87
2023/12/26 05:37:10;;;;;;;18.27;2.17;;;7.90;99.90;;;;;;4937573;29;20055;-87
2023/12/26 05:39:37;;;;;;;12.20;2.20;;;7.90;99.90;;;;;;4934568;29;20051;-86
2023/12/26 05:42:04;;;;;;;13.18;1.55;;;7.90;99.90;;;;;;4936454;29;20075;-86
2023/12/26 05:44:31;;;;;;;7.85;1.58;;;7.90;99.90;;;;;;4938564;29;20131;-86
2023/12/26 05:46:58;;;;;;;19.40;2.70;;;8.00;99.90;;;;;;4949264;29;20124;-87
2023/12/26 05:49:24;;;;;;;9.50;1.77;;;8.00;99.90;;;;;;4930334;29;20040;-87
2023/12/26 05:51:51;;;;;;;16.15;2.47;;;8.00;99.90;;;;;;4939349;29;20075;-87
2023/12/26 05:54:17;;;;;;;17.20;2.17;;;8.00;99.90;;;;;;4947885;29;20047;-87
2023/12/26 05:56:46;;;;;;;11.52;1.63;;;8.00;99.90;;;;;;4942906;29;20052;-87
2023/12/26 05:59:12;;;;;;;10.07;1.58;;;8.00;99.90;;;;;;4939393;29;20420;-87
2023/12/26 06:01:47;;;;;;;11.88;2.13;;;8.10;99.90;;;;;;4922725;29;20047;-87
2023/12/26 06:04:13;;;;;;;12.77;1.73;;;8.00;99.90;;;;;;4932580;29;20040;-87
2023/12/26 06:06:40;;;;;;;17.42;2.42;;;8.10;99.90;;;;;;4958816;29;20597;-87
2023/12/26 06:09:07;;;;;;;15.75;2.40;;;8.10;99.90;;;;;;4953956;29;20056;-87
2023/12/26 06:11:34;;;;;;;13.73;1.90;;;8.10;99.90;;;;;;4954336;29;20079;-87
2023/12/26 06:14:01;;;;;;;11.90;1.77;;;8.10;99.90;;;;;;4954223;29;20044;-86
2023/12/26 06:16:28;;;;;;;11.25;2.00;;;8.10;99.90;;;;;;4950891;29;20489;-86
2023/12/26 06:18:54;;;;;;;14.57;2.13;;;8.10;99.90;;;;;;4942170;29;20051;-87
2023/12/26 06:21:21;;;;;;;8.60;1.67;;;8.10;99.90;;;;;;4943470;29;20044;-87
2023/12/26 06:23:48;;;;;;;12.68;1.83;;;8.10;99.90;;;;;;4954273;29;20536;-87
2023/12/26 06:26:17;;;;;;;14.98;2.00;;;8.10;99.90;;;;;;4969778;29;20043;-87
2023/12/26 06:28:43;;;;;;;10.05;1.67;;;8.10;99.90;;;;;;4954075;29;20504;-86
2023/12/26 06:31:18;;;;;;;7.72;1.42;;;8.10;99.90;;;;;;4948407;29;20040;-87
2023/12/26 06:33:45;;;;;;;10.17;1.60;;;8.10;99.90;;;;;;4963252;29;20047;-86
2023/12/26 06:36:11;;;;;;;14.48;1.50;;;8.10;99.90;;;;;;4950847;29;20044;-84
2023/12/26 06:38:38;;;;;;;9.55;2.08;;;8.10;99.90;;;;;;4965893;29;20062;-85
2023/12/26 06:41:05;;;;;;;11.18;1.73;;;8.10;99.90;;;;;;4946871;29;20051;-84
2023/12/26 06:43:32;;;;;;;6.20;1.52;;;8.20;99.90;;;;;;4963262;29;20091;-84
2023/12/26 06:46:01;;;;;;;5.45;1.27;;;8.20;99.90;;;;;;4939702;29;20478;-85
2023/12/26 06:48:28;;;;;;;13.23;1.70;;;8.20;99.90;;;;;;4955583;29;20048;-85
2023/12/26 06:50:54;;;;;;;5.55;1.23;;;8.10;99.90;;;;;;4954101;29;20043;-85
2023/12/26 06:53:21;;;;;;;10.43;2.00;;;8.10;99.90;;;;;;4966515;29;20487;-85
2023/12/26 06:55:48;;;;;;;9.82;1.60;;;8.10;99.90;;;;;;4934941;29;20490;-85
2023/12/26 06:58:14;;;;;;;9.68;1.65;;;8.10;99.90;;;;;;4950658;29;20043;-84
2023/12/26 07:00:41;;;;;;;9.68;1.60;;;8.10;99.90;;;;;;4965438;29;20043;-84
2023/12/26 07:03:08;;;;;;;8.02;1.92;;;8.10;99.90;;;;;;4953544;29;20051;-85
2023/12/26 07:05:35;;;;;;;10.25;1.70;;;8.10;99.90;;;;;;4953336;29;20460;-84
2023/12/26 07:08:02;;;;;;;12.18;1.92;;;8.10;99.90;;;;;;4953063;29;20086;-85
2023/12/26 07:10:28;;;;;;;8.82;1.48;;;8.20;99.90;;;;;;4950584;29;20050;-84
2023/12/26 07:12:55;;;;;;;10.25;1.80;;;8.20;99.90;;;;;;4952533;29;20035;-85
2023/12/26 07:15:22;;;;;;;8.48;1.50;;;8.20;99.90;;;;;;4940377;29;20051;-84
2023/12/26 07:17:49;;;;;;;7.68;1.80;;;8.30;99.90;;;;;;4952490;29;20433;-84
2023/12/26 07:20:15;;;;;;;11.10;1.95;;;8.30;99.90;;;;;;4952424;29;20039;-85
2023/12/26 07:22:42;;;;;;;11.50;1.85;;;8.30;99.90;;;;;;4945513;29;20044;-84
2023/12/26 07:25:10;;;;;;;11.35;1.92;;;8.30;99.90;;;;;;4949109;29;20044;-85
2023/12/26 07:27:37;;;;;;;11.88;1.80;;;8.30;99.90;;;;;;4948614;29;20102;-85
2023/12/26 07:30:04;;;;;;;9.15;1.77;;;8.30;99.90;;;;;;4949456;29;20067;-85
2023/12/26 07:32:30;;;;;;;9.07;1.67;;;8.30;99.90;;;;;;4949310;29;20040;-84
2023/12/26 07:34:57;;;;;;;12.93;1.77;;;8.30;99.90;;;;;;4939804;29;20137;-84
2023/12/26 07:37:24;;;;;;;15.60;2.25;;;8.20;99.90;;;;;;4933843;29;20494;-84
2023/12/26 07:39:50;;;;;;;8.68;1.88;;;8.20;99.90;;;;;;4933095;29;20079;-85
2023/12/26 07:42:17;;;;;;;9.80;1.65;;;8.20;99.90;;;;;;4949896;29;20043;-84
2023/12/26 07:44:44;;;;;;;16.83;3.10;;;8.20;99.90;;;;;;4951703;29;20059;-84
2023/12/26 07:47:10;;;;;;;13.60;1.92;;;8.10;99.90;;;;;;4952105;29;20071;-85
2023/12/26 07:49:37;;;;;;;12.15;2.00;;;8.10;99.90;;;;;;4952024;29;20078;-84
2023/12/26 07:52:04;;;;;;;11.23;1.95;;;8.10;99.90;;;;;;4951614;29;20489;-84
2023/12/26 07:54:31;;;;;;;12.60;1.63;;;8.20;99.90;;;;;;4950127;29;20036;-84
2023/12/26 07:56:57;;;;;;;8.68;1.67;;;8.10;99.90;;;;;;4940138;29;20099;-84
2023/12/26 07:59:24;;;;;;;9.60;1.80;;;8.10;99.90;;;;;;4949337;29;20382;-85
2023/12/26 08:01:51;;;;;;;8.98;1.95;;;8.20;99.90;;;;;;4939187;29;20047;-85
2023/12/26 08:04:17;;;;;;;10.38;1.83;;;8.20;99.90;;;;;;4947665;29;20078;-85
2023/12/26 08:06:44;;;;;;;9.57;1.50;;;8.20;99.90;;;;;;4944255;29;20047;-85
2023/12/26 08:09:11;;;;;;;8.98;1.73;;;8.20;99.90;;;;;;4910804;29;1146855;-85
2023/12/26 08:11:38;;;;;;;11.25;1.50;;;8.20;99.90;;;;;;4947226;29;20043;-84
2023/12/26 08:14:05;;;;;;;12.15;2.05;;;8.20;99.90;;;;;;4944381;29;20040;-85
2023/12/26 08:16:31;;;;;;;8.07;1.60;;;8.30;99.90;;;;;;4937887;29;20126;-85
2023/12/26 08:19:00;;;;;;;14.25;2.00;;;8.30;99.90;;;;;;4939472;29;20047;-85
2023/12/26 08:21:27;;;;;;;17.25;2.00;;;8.30;99.90;;;;;;4943690;29;20478;-85
2023/12/26 08:23:53;;;;;;;12.35;1.95;;;8.30;99.90;;;;;;4941683;29;20044;-84
2023/12/26 08:26:21;;;;;;;17.45;2.80;;;8.30;99.90;;;;;;4954980;29;20064;-85
2023/12/26 08:28:49;;;;;;;15.35;2.25;;;8.30;99.90;;;;;;4948635;29;20413;-84
2023/12/26 08:31:16;;;;;;;15.18;1.90;;;8.30;99.90;;;;;;4945390;29;20032;-84
2023/12/26 08:33:43;;;;;;;13.68;1.90;;;8.30;99.90;;;;;;4957414;29;20568;-84
2023/12/26 08:36:10;;;;;;;11.82;2.17;;;8.30;99.90;;;;;;4946305;29;20156;-84
2023/12/26 08:38:37;;;;;;;13.93;2.45;;;8.30;99.90;;;;;;4948677;29;20243;-85
2023/12/26 08:41:05;;;;;;;15.45;2.22;;;8.30;99.90;;;;;;4942340;29;20036;-85
2023/12/26 08:43:32;;;;;;;14.02;2.10;;;8.30;99.90;;;;;;4936396;29;20047;-83
2023/12/26 08:45:59;;;;;;;17.40;2.05;;;8.30;99.90;;;;;;4954251;29;20070;-82
2023/12/26 08:48:26;;;;;;;9.75;1.95;;;8.30;99.90;;;;;;4955617;29;20082;-82
2023/12/26 08:50:52;;;;;;;12.30;2.25;;;8.30;99.90;;;;;;4953671;29;20042;-83
2023/12/26 08:53:19;;;;;;;14.77;1.52;;;8.30;99.90;;;;;;4953945;29;20044;-83
2023/12/26 08:55:47;;;;;;;10.02;1.38;;;8.30;99.90;;;;;;4943913;29;20511;-82
2023/12/26 08:58:14;;;;;;;8.55;1.73;;;8.30;99.90;;;;;;4955757;29;20040;-82
2023/12/26 09:00:41;;;;;;;12.57;2.15;;;8.30;99.90;;;;;;4955351;29;20131;-84
2023/12/26 09:03:07;;;;;;;11.25;1.90;;;8.30;99.90;;;;;;4962887;29;20118;-85
2023/12/26 09:05:34;;;;;;;7.88;1.80;;;8.30;99.90;;;;;;4955651;29;20054;-82
2023/12/26 09:08:01;;;;;;;12.52;2.53;;;8.20;99.90;;;;;;4970206;29;20054;-82
2023/12/26 09:10:28;;;;;;;7.82;1.48;;;8.20;99.90;;;;;;4964282;29;20036;-82
2023/12/26 09:12:54;;;;;;;15.32;2.25;;;8.20;99.90;;;;;;4943865;29;20606;-82
2023/12/26 09:15:21;;;;;;;13.35;2.25;;;8.20;99.90;;;;;;4952415;29;20489;-82
2023/12/26 09:17:48;;;;;;;14.13;2.20;;;8.10;99.90;;;;;;4964305;29;20043;-82
2023/12/26 09:20:14;;;;;;;14.43;2.28;;;8.10;99.90;;;;;;4947272;29;20123;-82
2023/12/26 09:22:41;;;;;;;13.82;2.03;;;8.20;99.90;;;;;;4939296;29;20044;-82
2023/12/26 09:25:08;;;;;;;8.35;2.10;;;8.20;99.90;;;;;;4961407;29;20040;-82
2023/12/26 09:27:35;;;;;;;12.63;1.95;;;8.20;99.90;;;;;;4946473;29;20500;-82
2023/12/26 09:30:01;;;;;;;15.77;2.33;;;8.30;99.90;;;;;;4946983;29;20098;-82
2023/12/26 09:32:28;;;;;;;11.05;1.63;;;8.40;99.90;;;;;;4944225;29;20043;-82
2023/12/26 09:34:55;;;;;;;10.65;1.92;;;8.40;99.90;;;;;;4950130;29;20048;-82
2023/12/26 09:37:21;;;;;;;11.88;1.83;;;8.40;99.90;;;;;;4953224;29;20047;-81
2023/12/26 09:39:48;;;;;;;12.45;2.38;;;8.50;99.90;;;;;;4956997;29;20044;-82
2023/12/26 09:42:22;;;;;;;13.88;1.83;;;8.50;99.90;;;;;;4945877;29;20067;-81
2023/12/26 09:44:49;;;;;;;12.77;2.38;;;8.50;99.90;;;;;;4964966;29;20044;-81
2023/12/26 09:47:19;;;;;;;8.05;1.70;;;8.60;99.90;;;;;;4951999;29;20504;-82
2023/12/26 09:49:47;;;;;;;16.98;2.80;;;8.50;99.90;;;;;;4954650;29;20070;-82
2023/12/26 09:52:14;;;;;;;12.20;3.22;;;8.60;99.90;;;;;;4952546;29;20036;-82
2023/12/26 09:54:43;;;;;;;15.75;2.22;;;8.60;99.90;;;;;;4938537;29;20055;-82
2023/12/26 09:57:10;;;;;;;11.07;2.03;;;8.50;99.90;;;;;;4968636;29;20040;-82
2023/12/26 09:59:39;;;;;;;11.80;2.42;;;8.50;99.90;;;;;;4953966;29;20040;-82
2023/12/26 10:02:13;;;;;;;12.60;2.90;;;8.60;99.90;;;;;;4954187;29;20050;-82
2023/12/26 10:04:41;;;;;;;13.70;1.80;;;8.50;99.90;;;;;;4950700;29;20412;-82
2023/12/26 10:07:09;;;;;;;16.10;2.88;;;8.60;99.90;;;;;;4939073;29;20115;-81
2023/12/26 10:09:36;;;;;;;13.63;2.00;;;8.60;99.90;;;;;;4935358;29;20060;-82
2023/12/26 10:12:03;;;;;;;12.05;2.20;;;8.60;99.90;;;;;;4950183;29;20534;-82
2023/12/26 10:14:31;;;;;;;12.73;2.20;;;8.60;99.90;;;;;;4944631;29;20379;-82
2023/12/26 10:16:58;;;;;;;12.57;1.90;;;8.60;99.90;;;;;;4942393;29;20031;-82
2023/12/26 10:19:25;;;;;;;14.10;2.35;;;8.60;99.90;;;;;;4969773;29;20043;-82
2023/12/26 10:21:53;;;;;;;11.75;2.35;;;8.60;99.90;;;;;;4946223;29;20043;-82
2023/12/26 10:24:22;;;;;;;13.23;1.73;;;8.60;99.90;;;;;;4952541;29;20036;-84
2023/12/26 10:26:49;;;;;;;15.52;2.05;;;8.60;99.90;;;;;;4954160;29;20488;-84
2023/12/26 10:29:16;;;;;;;9.18;2.08;;;8.60;99.90;;;;;;4951856;29;20051;-84
2023/12/26 10:31:44;;;;;;;13.85;2.20;;;8.70;99.90;;;;;;4943777;29;20040;-84
2023/12/26 10:34:15;;;;;;;12.38;1.95;;;8.70;99.90;;;;;;4947496;29;20561;-84
2023/12/26 10:36:44;;;;;;;12.85;2.28;;;8.70;99.90;;;;;;4945631;29;20043;-85
2023/12/26 10:39:13;;;;;;;14.10;2.05;;;8.80;99.90;;;;;;4969781;29;20095;-84
2023/12/26 10:41:45;;;;;;;15.60;2.00;;;8.80;99.90;;;;;;4953718;29;20130;-85
2023/12/26 10:44:17;;;;;;;10.65;2.10;;;8.80;99.90;;;;;;4949069;29;20047;-85
2023/12/26 10:46:45;;;;;;;17.50;1.90;;;8.90;99.90;;;;;;4953061;29;20036;-84
2023/12/26 10:49:22;;;;;;;14.02;1.85;;;8.90;99.90;;;;;;4941907;29;20041;-85
2023/12/26 10:51:51;;;;;;;11.30;1.77;;;8.90;99.90;;;;;;4953510;29;20052;-84
2023/12/26 10:54:22;;;;;;;9.85;2.10;;;8.90;99.90;;;;;;4937318;29;20512;-84
2023/12/26 10:56:50;;;;;;;11.98;2.53;;;8.90;99.90;;;;;;4952190;29;20039;-84
2023/12/26 13:52:00;;;;;;;7.80;1.38;;;8.30;99.90;;;;;;4960441;29;20095;-86
2023/12/26 13:54:27;;;;;;;6.45;1.10;;;8.30;99.90;;;;;;4967380;29;20094;-86
2023/12/26 13:56:53;;;;;;;5.88;1.13;;;8.20;99.90;;;;;;4949194;29;20055;-85
2023/12/26 13:59:21;;;;;;;6.20;0.70;;;8.20;99.90;;;;;;4940475;29;20048;-86
2023/12/26 14:01:48;;;;;;;7.28;1.17;;;8.10;99.90;;;;;;4947320;29;20040;-86
2023/12/26 14:04:15;;;;;;;8.77;0.88;;;8.00;99.90;;;;;;4952613;29;20051;-86
2023/12/26 14:06:42;;;;;;;3.75;0.68;;;8.00;99.90;;;;;;4947489;29;20075;-86
2023/12/26 14:09:08;;;;;;;8.38;1.23;;;8.00;99.90;;;;;;4946946;29;20078;-85
2023/12/26 14:11:35;;;;;;;9.88;1.13;;;8.00;99.90;;;;;;4966673;29;20055;-86
2023/12/26 14:14:02;;;;;;;4.68;1.00;;;8.00;99.90;;;;;;4949557;29;20036;-85
2023/12/26 14:16:29;;;;;;;2.08;0.80;;;7.90;99.90;;;;;;4951237;29;20048;-85
2023/12/26 14:18:55;;;;;;;4.25;0.75;;;7.90;99.90;;;;;;4948452;29;20048;-85
2023/12/26 14:21:22;;;;;;;2.97;1.02;;;7.80;99.90;;;;;;4961711;29;20039;-85
2023/12/26 14:23:49;;;;;;;4.50;0.93;;;7.60;99.90;;;;;;4948126;29;20082;-85
2023/12/26 14:26:16;;;;;;;7.10;0.98;;;7.50;99.90;;;;;;4942872;29;20079;-85
2023/12/26 14:28:43;;;;;;;4.30;1.08;;;7.40;99.90;;;;;;4943495;29;20409;-85
2023/12/26 14:31:09;;;;;;;1.88;0.68;;;7.40;99.90;;;;;;4952184;29;20477;-85
2023/12/26 14:33:36;;;;;;;6.63;1.10;;;7.40;99.90;;;;;;4960201;29;20048;-86
2023/12/26 14:36:03;;;;;;;3.60;0.90;;;7.40;99.90;;;;;;4944685;29;20123;-85
2023/12/26 14:38:31;;;;;;;3.97;1.00;;;7.40;99.90;;;;;;4934729;29;20043;-88
2023/12/26 14:40:59;;;;;;;5.38;1.05;;;7.40;99.90;;;;;;4959924;29;20126;-85
2023/12/26 14:43:26;;;;;;;6.78;1.08;;;7.40;99.90;;;;;;4952928;29;20073;-86
2023/12/26 14:45:52;;;;;;;4.72;1.15;;;7.40;99.90;;;;;;4951614;29;20552;-84
2023/12/26 14:48:19;;;;;;;6.28;0.90;;;7.30;99.90;;;;;;4951542;29;20502;-84
2023/12/26 14:50:46;;;;;;;5.65;1.55;;;7.30;99.90;;;;;;4953557;29;20867;-84
2023/12/26 14:53:13;;;;;;;8.50;1.33;;;7.30;99.90;;;;;;4953592;29;20101;-85
2023/12/26 14:55:40;;;;;;;7.63;1.30;;;7.30;99.90;;;;;;4966061;29;20437;-85
2023/12/26 14:58:06;;;;;;;6.53;1.20;;;7.30;99.90;;;;;;4953903;29;20040;-84
2023/12/26 15:00:33;;;;;;;3.38;0.70;;;7.30;99.90;;;;;;4950205;29;20629;-86
2023/12/26 15:03:00;;;;;;;8.38;1.05;;;7.30;99.90;;;;;;4945040;29;20080;-86
2023/12/26 15:05:33;;;;;;;5.97;1.20;;;7.20;99.90;;;;;;4962439;29;20112;-86
2023/12/26 15:08:02;;;;;;;7.32;1.50;;;7.20;99.90;;;;;;4952781;29;20141;-85
2023/12/26 15:10:29;;;;;;;6.40;1.10;;;7.10;99.90;;;;;;4953303;29;20537;-85
2023/12/26 15:12:56;;;;;;;8.18;1.48;;;7.10;99.90;;;;;;4968744;29;20175;-86
2023/12/26 15:15:23;;;;;;;7.53;1.00;;;7.10;99.90;;;;;;4940353;29;20050;-85
2023/12/26 15:17:49;;;;;;;4.97;1.00;;;7.00;99.90;;;;;;4967138;29;20121;-85
2023/12/26 15:20:18;;;;;;;7.93;1.10;;;7.00;99.90;;;;;;4952819;29;20534;-85
2023/12/26 15:22:46;;;;;;;6.75;1.05;;;7.00;99.90;;;;;;4958792;29;20055;-86
2023/12/26 15:25:14;;;;;;;4.25;1.10;;;7.00;99.90;;;;;;4959690;29;20072;-83
2023/12/26 15:27:43;;;;;;;6.32;1.10;;;6.90;99.90;;;;;;4937472;29;20046;-85
2023/12/26 15:30:10;;;;;;;6.80;1.00;;;6.90;99.90;;;;;;4952624;29;20042;-86
2023/12/26 15:32:38;;;;;;;9.68;1.75;;;6.90;99.90;;;;;;4952724;29;20039;-85
2023/12/26 15:35:07;;;;;;;4.70;1.10;;;6.80;99.90;;;;;;4952691;29;20043;-86
2023/12/26 15:37:34;;;;;;;6.68;1.23;;;6.80;99.90;;;;;;4966249;29;20044;-86
2023/12/26 15:40:00;;;;;;;8.35;2.10;;;6.80;99.90;;;;;;4952123;29;20527;-85
2023/12/26 15:42:30;;;;;;;8.85;1.35;;;6.70;99.90;;;;;;4968110;29;20044;-86
2023/12/26 15:44:57;;;;;;;7.80;1.30;;;6.70;99.90;;;;;;4952651;29;20055;-86